EVRA Airport Information

Runway Information
Runway 18 Length 10499 ft width 148 ft
Elevation 31 ft Threshold 0 ft Heading 185
Runway 36 Length 10499 ft Width 148 ft
Elevation 34 ft Threshold 0 ft Heading 5
Airport Frequencies
Type APP Name APP Frequency 129.925 MHZ
Type ATIS Name ATIS Frequency 121.2 MHZ
Type GND Name Riga Groun Frequency 118.8 MHZ
Type MISC Name Riga Apron Frequency 131.6 MHZ
Type TWR Name TWR Frequency 118.1 MHZ
Airport Navaids
Type VOR-DME Name Riga Frequency 112050 KHZ
Type VOR-DME Name Riga Frequency 113700 KHZ
Airport Weather Information & NOTAM
ADDS - METARS form results

(0217 UTC 22 January 2019)
Data provider http://aviationweather.gov/metar/data/
 
METAR text: EVRA 220150Z 19003KT 9999 FEW030 M11/M12 Q1018 R36/490295 NOSIG
Conditions at: EVRA (RIGA AIRPORT , LV) observed 0150 UTC 22 January 2019
Temperature: -11.0°C (12°F)
Dewpoint: -12.0°C (10°F) [RH = 92%]
Pressure (altimeter): 30.06 inches Hg (1018.0 mb)
Winds: from the S (190 degrees) at 3 MPH (3 knots; 1.5 m/s)
Visibility: 6 or more miles (10+ km)
Ceiling: at least 12,000 feet AGL
Clouds: few clouds at 3000 feet AGL
Weather: no significant weather observed at this time

METAR text: EVRA 220120Z 18004KT 9999 FEW021 M11/M11 Q1018 R36/490295 NOSIG
Conditions at: EVRA (RIGA AIRPORT , LV) observed 0120 UTC 22 January 2019
Temperature: -11.0°C (12°F)
Dewpoint: -11.0°C (12°F) [RH = 100%]
Pressure (altimeter): 30.06 inches Hg (1018.0 mb)
Winds: from the S (180 degrees) at 5 MPH (4 knots; 2.1 m/s)
Visibility: 6 or more miles (10+ km)
Ceiling: at least 12,000 feet AGL
Clouds: few clouds at 2100 feet AGL
Weather: no significant weather observed at this time

Forecast for: EVRA (RIGA AIRPORT , LV)
Text: TAF EVRA 220200Z 2203/2303 13006KT 9999 SCT030
Forecast period: 0300 UTC 22 January 2019 to 0300 UTC 23 January 2019
Forecast type: FROM: standard forecast or significant change
Winds: from the SE (130 degrees) at 7 MPH (6 knots; 3.1 m/s)
Visibility: 6 or more miles 10+ km)
Ceiling: at least 12,000 feet AGL
Clouds: scattered clouds at 3000 feet AGL
Weather: no significant weather forecast for this period
Text: PROB40
Forecast period: 0300 to 0800 UTC 22 January 2019
Forecast type: TEMPORARY: The following changes expected for less than half the time period
Visibility: 0.31 miles (0.50 km)
Ceiling: indefinite ceiling with vertical visibility of 100 feet AGL
Clouds: obscured sky
Weather: FZFG  (freezing fog)